Time;durP1;ratioP1;P1;durP2;ratioP2;P2;SDS_P1;SDS_P2;PMS_P1;PMS_P2;Temp;Humidity;BMP_temperature;BMP_pressure;BME280_temperature;BME280_humidity;BME280_pressure;Samples;Min_cycle;Max_cycle;Signal;HPM_P1;HPM_P2
2022/12/06 00:01:16;;;;;;;24.65;16.90;;;;;;;;;;4992532;28;20088;-64
2022/12/06 00:03:43;;;;;;;22.88;15.25;;;;;;;;;;4993400;28;20070;-67
2022/12/06 00:06:15;;;;;;;22.60;15.32;;;;;;;;;;4992745;28;20485;-66
2022/12/06 00:08:42;;;;;;;23.80;16.27;;;;;;;;;;4992992;28;20077;-66
2022/12/06 00:11:13;;;;;;;23.33;16.08;;;;;;;;;;4992877;28;20109;-67
2022/12/06 00:13:40;;;;;;;25.50;17.02;;;;;;;;;;4992806;28;20513;-65
2022/12/06 00:16:12;;;;;;;24.45;15.68;;;;;;;;;;4992503;28;20050;-66
2022/12/06 00:18:39;;;;;;;29.73;17.27;;;;;;;;;;4992768;28;20088;-66
2022/12/06 00:21:15;;;;;;;23.80;16.75;;;;;;;;;;4992535;28;20046;-67
2022/12/06 00:23:50;;;;;;;23.77;15.95;;;;;;;;;;4992495;28;20158;-67
2022/12/06 00:26:17;;;;;;;24.23;16.30;;;;;;;;;;4992441;28;20071;-67
2022/12/06 00:28:44;;;;;;;24.35;15.85;;;;;;;;;;4992524;28;20054;-67
2022/12/06 00:31:17;;;;;;;23.13;15.70;;;;;;;;;;4992485;28;20058;-67
2022/12/06 00:33:44;;;;;;;23.35;16.45;;;;;;;;;;4992417;28;20058;-67
2022/12/06 00:36:19;;;;;;;25.30;16.23;;;;;;;;;;4992590;28;20046;-67
2022/12/06 00:38:46;;;;;;;24.27;16.65;;;;;;;;;;4992462;28;20603;-67
2022/12/06 00:41:16;;;;;;;27.92;16.33;;;;;;;;;;4992400;28;20046;-67
2022/12/06 00:43:43;;;;;;;26.42;17.05;;;;;;;;;;4992563;28;20054;-67
2022/12/06 00:46:12;;;;;;;23.73;15.75;;;;;;;;;;4991961;28;20556;-65
2022/12/06 00:48:39;;;;;;;30.92;17.95;;;;;;;;;;4992462;28;20146;-67
2022/12/06 00:51:06;;;;;;;25.00;17.00;;;;;;;;;;4990901;28;20130;-67
2022/12/06 00:53:33;;;;;;;24.33;16.95;;;;;;;;;;4992559;28;20047;-66
2022/12/06 00:55:59;;;;;;;25.60;17.20;;;;;;;;;;4992066;28;20121;-66
2022/12/06 00:58:26;;;;;;;24.02;16.42;;;;;;;;;;4991258;28;20608;-67
2022/12/06 01:00:53;;;;;;;24.13;16.38;;;;;;;;;;4992089;28;20086;-66
2022/12/06 01:03:19;;;;;;;24.40;14.77;;;;;;;;;;4992416;28;20133;-67
2022/12/06 01:05:48;;;;;;;22.88;15.70;;;;;;;;;;4991995;28;20433;-67
2022/12/06 01:08:16;;;;;;;21.90;15.77;;;;;;;;;;4992392;28;20394;-66
2022/12/06 01:10:52;;;;;;;22.75;14.98;;;;;;;;;;4992087;28;20190;-67
2022/12/06 01:13:18;;;;;;;26.50;16.25;;;;;;;;;;4995099;28;20430;-67
2022/12/06 01:15:45;;;;;;;23.27;14.70;;;;;;;;;;4995283;28;20046;-67
2022/12/06 01:18:12;;;;;;;22.35;15.27;;;;;;;;;;4995830;28;20054;-66
2022/12/06 01:20:38;;;;;;;23.80;15.48;;;;;;;;;;4995685;28;20097;-67
2022/12/06 01:23:05;;;;;;;25.17;16.45;;;;;;;;;;4995321;28;20564;-66
2022/12/06 01:25:31;;;;;;;26.65;16.85;;;;;;;;;;4995162;28;20465;-66
2022/12/06 01:28:01;;;;;;;24.67;15.57;;;;;;;;;;4995664;28;20130;-65
2022/12/06 01:30:28;;;;;;;26.45;17.33;;;;;;;;;;4995327;28;20105;-67
2022/12/06 01:32:54;;;;;;;25.00;15.90;;;;;;;;;;4995520;28;20050;-67
2022/12/06 01:35:21;;;;;;;23.63;14.93;;;;;;;;;;4995230;28;20118;-65
2022/12/06 01:37:48;;;;;;;26.35;16.75;;;;;;;;;;4995550;28;20116;-66
2022/12/06 01:40:14;;;;;;;24.45;16.55;;;;;;;;;;4995412;28;20101;-66
2022/12/06 01:42:41;;;;;;;23.35;15.18;;;;;;;;;;4994946;28;20054;-67
2022/12/06 01:45:08;;;;;;;24.27;16.00;;;;;;;;;;4995369;28;20090;-66
2022/12/06 01:47:40;;;;;;;22.17;15.20;;;;;;;;;;4994918;28;20464;-66
2022/12/06 01:50:19;;;;;;;21.77;15.73;;;;;;;;;;4977958;28;20077;-67
2022/12/06 01:53:07;;;;;;;23.63;16.40;;;;;;;;;;4993629;28;20484;-65
2022/12/06 01:55:35;;;;;;;27.95;17.23;;;;;;;;;;4995147;28;20054;-67
2022/12/06 01:58:06;;;;;;;29.58;17.77;;;;;;;;;;4993817;28;20054;-67
2022/12/06 02:00:33;;;;;;;27.00;16.45;;;;;;;;;;4978054;28;20101;-67
2022/12/06 02:03:00;;;;;;;25.67;17.13;;;;;;;;;;4994618;28;20050;-66
2022/12/06 02:05:27;;;;;;;23.67;15.88;;;;;;;;;;4993223;28;20050;-67
2022/12/06 02:07:55;;;;;;;26.02;16.77;;;;;;;;;;4994908;28;20413;-66
2022/12/06 02:10:21;;;;;;;24.50;16.60;;;;;;;;;;4977578;28;20060;-67
2022/12/06 02:12:49;;;;;;;23.10;16.45;;;;;;;;;;4993113;28;20112;-65
2022/12/06 02:15:19;;;;;;;21.30;14.85;;;;;;;;;;4993673;28;20055;-65
2022/12/06 02:18:18;;;;;;;22.20;15.45;;;;;;;;;;4994493;28;20097;-67
2022/12/06 02:20:48;;;;;;;23.35;16.30;;;;;;;;;;4980059;28;20054;-67
2022/12/06 02:23:41;;;;;;;25.98;15.68;;;;;;;;;;4992545;28;20107;-66
2022/12/06 02:26:23;;;;;;;23.58;16.60;;;;;;;;;;4988669;28;20046;-67
2022/12/06 02:29:01;;;;;;;22.00;15.67;;;;;;;;;;4993282;28;20050;-67
2022/12/06 02:31:34;;;;;;;27.25;15.13;;;;;;;;;;4994276;28;20485;-67
2022/12/06 02:34:19;;;;;;;;;;;;;;;;;;4993657;28;20146;-65
2022/12/06 02:36:48;;;;;;;20.52;14.65;;;;;;;;;;4993753;28;19921;-66
2022/12/06 02:39:17;;;;;;;25.00;16.05;;;;;;;;;;4992824;28;20054;-67
2022/12/06 02:41:48;;;;;;;21.17;14.90;;;;;;;;;;4993972;28;20051;-67
2022/12/06 02:44:19;;;;;;;23.20;15.02;;;;;;;;;;4993137;28;20085;-67
2022/12/06 02:46:46;;;;;;;22.98;14.98;;;;;;;;;;4992775;28;20097;-67
2022/12/06 02:49:12;;;;;;;19.88;14.32;;;;;;;;;;4976310;28;20077;-66
2022/12/06 02:51:39;;;;;;;24.27;15.60;;;;;;;;;;4976541;28;20093;-66
2022/12/06 02:54:07;;;;;;;20.52;13.88;;;;;;;;;;4976583;28;20128;-67
2022/12/06 02:56:34;;;;;;;22.70;15.00;;;;;;;;;;4976515;28;20078;-67
2022/12/06 02:59:01;;;;;;;19.23;13.35;;;;;;;;;;4994190;28;20054;-67
2022/12/06 03:01:32;;;;;;;22.45;14.70;;;;;;;;;;4993611;28;20092;-66
2022/12/06 03:04:45;;;;;;;22.83;13.88;;;;;;;;;;4976622;28;20108;-67
2022/12/06 03:07:30;;;;;;;19.63;13.57;;;;;;;;;;4993621;28;20050;-66
2022/12/06 03:10:28;;;;;;;18.88;13.30;;;;;;;;;;4993444;28;20056;-66
2022/12/06 03:13:36;;;;;;;21.38;13.40;;;;;;;;;;4992380;28;20453;-67
2022/12/06 03:16:09;;;;;;;20.30;13.55;;;;;;;;;;4972863;28;20050;-67
2022/12/06 03:18:41;;;;;;;18.35;13.05;;;;;;;;;;4977160;28;20112;-66
2022/12/06 03:21:19;;;;;;;22.30;14.45;;;;;;;;;;4993317;28;20054;-66
2022/12/06 03:23:47;;;;;;;18.45;13.70;;;;;;;;;;4993642;28;20104;-68
2022/12/06 03:26:16;;;;;;;19.48;13.63;;;;;;;;;;4975833;28;20043;-68
2022/12/06 03:28:42;;;;;;;18.75;13.27;;;;;;;;;;4992593;28;20054;-67
2022/12/06 03:31:10;;;;;;;18.90;13.55;;;;;;;;;;4993266;28;20472;-68
2022/12/06 03:33:45;;;;;;;18.42;13.00;;;;;;;;;;4992208;28;20058;-68
2022/12/06 03:36:12;;;;;;;17.85;13.10;;;;;;;;;;4974951;28;20112;-68
2022/12/06 03:38:52;;;;;;;17.77;12.88;;;;;;;;;;4975874;28;20090;-68
2022/12/06 03:41:20;;;;;;;18.83;12.88;;;;;;;;;;4992174;28;20097;-68
2022/12/06 03:43:47;;;;;;;17.95;13.18;;;;;;;;;;4976210;28;20097;-67
2022/12/06 03:46:19;;;;;;;17.83;12.23;;;;;;;;;;4991355;28;20489;-68
2022/12/06 03:49:16;;;;;;;17.83;13.60;;;;;;;;;;4976055;28;20101;-66
2022/12/06 03:51:43;;;;;;;19.67;13.45;;;;;;;;;;4990525;28;20297;-67
2022/12/06 03:54:09;;;;;;;20.30;13.95;;;;;;;;;;4991734;28;20055;-67
2022/12/06 03:56:37;;;;;;;18.60;13.30;;;;;;;;;;4992940;28;20194;-67
2022/12/06 03:59:08;;;;;;;18.83;13.80;;;;;;;;;;4991613;28;20104;-68
2022/12/06 04:01:35;;;;;;;20.38;14.00;;;;;;;;;;4991515;28;20046;-66
2022/12/06 04:04:02;;;;;;;21.58;13.63;;;;;;;;;;4992355;28;20050;-65
2022/12/06 04:06:29;;;;;;;17.77;13.13;;;;;;;;;;4992553;28;20043;-67
2022/12/06 04:09:51;;;;;;;16.75;12.75;;;;;;;;;;4993004;28;20429;-68
2022/12/06 04:11:42;;;;;;;17.52;12.38;;;;;;;;;;4992889;28;20104;-68
2022/12/06 04:14:09;;;;;;;18.05;12.02;;;;;;;;;;4992922;28;20058;-65
2022/12/06 04:19:20;;;;;;;19.35;14.25;;;;;;;;;;4992938;28;20100;-66
2022/12/06 04:24:32;;;;;;;18.20;12.55;;;;;;;;;;4991559;28;20104;-66
2022/12/06 04:28:40;;;;;;;16.13;12.15;;;;;;;;;;4992485;28;20485;-66
2022/12/06 04:40:48;;;;;;;18.70;12.77;;;;;;;;;;4992297;28;20090;-65
2022/12/06 04:45:59;;;;;;;19.38;13.05;;;;;;;;;;5022705;23;21699;-68
2022/12/06 04:48:26;;;;;;;17.88;12.35;;;;;;;;;;4996741;28;20050;-68
2022/12/06 04:50:53;;;;;;;21.13;12.48;;;;;;;;;;4996058;28;20077;-68
2022/12/06 04:53:19;;;;;;;20.40;14.05;;;;;;;;;;4995908;28;20054;-67
2022/12/06 04:55:47;;;;;;;18.45;12.90;;;;;;;;;;4995838;28;20413;-67
2022/12/06 04:58:14;;;;;;;17.42;12.63;;;;;;;;;;4995884;28;20065;-67
2022/12/06 05:00:43;;;;;;;17.77;12.32;;;;;;;;;;4997068;28;20089;-67
2022/12/06 05:03:11;;;;;;;19.08;12.77;;;;;;;;;;4996277;28;20517;-67
2022/12/06 05:05:38;;;;;;;18.25;13.07;;;;;;;;;;4995717;28;20058;-67
2022/12/06 05:08:05;;;;;;;19.17;13.68;;;;;;;;;;4995817;28;20042;-67
2022/12/06 05:10:31;;;;;;;18.05;12.45;;;;;;;;;;4987528;28;20129;-67
2022/12/06 05:12:59;;;;;;;16.38;12.57;;;;;;;;;;4982763;28;20410;-68
2022/12/06 05:15:27;;;;;;;18.85;12.35;;;;;;;;;;4975125;28;20157;-67
2022/12/06 05:17:55;;;;;;;21.08;13.63;;;;;;;;;;4976101;28;20051;-67
2022/12/06 05:20:22;;;;;;;17.58;13.30;;;;;;;;;;4977444;28;20090;-67
2022/12/06 05:22:48;;;;;;;21.45;13.13;;;;;;;;;;4982561;28;20082;-69
2022/12/06 05:25:15;;;;;;;18.27;13.05;;;;;;;;;;4975935;28;20105;-67
2022/12/06 05:27:43;;;;;;;17.95;12.48;;;;;;;;;;4975783;28;20391;-67
2022/12/06 05:30:10;;;;;;;21.20;14.45;;;;;;;;;;4976008;28;20085;-65
2022/12/06 05:32:38;;;;;;;17.80;12.50;;;;;;;;;;4992536;28;20058;-65
2022/12/06 05:35:06;;;;;;;19.13;13.52;;;;;;;;;;4993773;28;20148;-68
2022/12/06 05:37:32;;;;;;;18.48;13.77;;;;;;;;;;4993675;28;20049;-65
2022/12/06 05:39:59;;;;;;;19.20;13.45;;;;;;;;;;4995171;28;20125;-67
2022/12/06 05:42:26;;;;;;;18.02;12.43;;;;;;;;;;4994938;28;20050;-66
2022/12/06 05:44:53;;;;;;;16.98;12.50;;;;;;;;;;4994923;28;20424;-68
2022/12/06 05:47:19;;;;;;;19.00;12.73;;;;;;;;;;4994966;28;20093;-65
2022/12/06 05:49:46;;;;;;;17.48;12.25;;;;;;;;;;4994958;28;20112;-66
2022/12/06 05:52:12;;;;;;;16.98;12.52;;;;;;;;;;4995092;28;20481;-65
2022/12/06 05:54:39;;;;;;;17.20;11.80;;;;;;;;;;4994632;28;20057;-66
2022/12/06 05:57:06;;;;;;;16.20;12.90;;;;;;;;;;4994843;28;20125;-66
2022/12/06 05:59:32;;;;;;;17.05;12.88;;;;;;;;;;4993743;28;20077;-66
2022/12/06 06:01:59;;;;;;;17.23;11.77;;;;;;;;;;4994233;28;20464;-66
2022/12/06 06:04:26;;;;;;;20.10;13.88;;;;;;;;;;4994685;28;20520;-66
2022/12/06 06:06:52;;;;;;;21.63;13.98;;;;;;;;;;4994401;28;20112;-66
2022/12/06 06:09:19;;;;;;;19.85;13.80;;;;;;;;;;4994420;28;20571;-65
2022/12/06 06:11:45;;;;;;;18.63;13.60;;;;;;;;;;4994503;28;20085;-68
2022/12/06 06:14:13;;;;;;;20.48;12.88;;;;;;;;;;4994561;28;20050;-67
2022/12/06 06:16:40;;;;;;;17.20;12.95;;;;;;;;;;4994210;28;20078;-66
2022/12/06 06:19:07;;;;;;;20.10;13.63;;;;;;;;;;4994252;28;20105;-66
2022/12/06 06:21:33;;;;;;;22.95;13.45;;;;;;;;;;4993986;28;20050;-66
2022/12/06 06:24:00;;;;;;;17.48;12.40;;;;;;;;;;4994248;28;20056;-67
2022/12/06 06:26:27;;;;;;;18.20;12.43;;;;;;;;;;4994018;28;20050;-66
2022/12/06 06:28:53;;;;;;;17.70;12.95;;;;;;;;;;4993955;28;20050;-66
2022/12/06 06:31:20;;;;;;;20.35;13.20;;;;;;;;;;4993373;28;20425;-67
2022/12/06 06:33:47;;;;;;;22.08;13.35;;;;;;;;;;4992968;28;20588;-65
2022/12/06 06:36:13;;;;;;;16.88;12.90;;;;;;;;;;4990254;28;20050;-67
2022/12/06 06:38:40;;;;;;;23.40;13.68;;;;;;;;;;4992171;28;20054;-66
2022/12/06 06:41:07;;;;;;;19.48;13.27;;;;;;;;;;4991777;28;20112;-65
2022/12/06 06:43:33;;;;;;;17.90;12.95;;;;;;;;;;4991895;28;20061;-65
2022/12/06 06:46:02;;;;;;;17.40;13.20;;;;;;;;;;4990322;28;20513;-66
2022/12/06 06:48:31;;;;;;;17.23;13.00;;;;;;;;;;4991203;28;20578;-66
2022/12/06 06:51:07;;;;;;;16.98;12.20;;;;;;;;;;4990372;28;20050;-65
2022/12/06 06:53:33;;;;;;;18.58;13.35;;;;;;;;;;4991559;28;20050;-66
2022/12/06 06:56:00;;;;;;;20.25;13.02;;;;;;;;;;4991655;28;20066;-66
2022/12/06 06:58:27;;;;;;;19.15;13.07;;;;;;;;;;4990642;28;20076;-67
2022/12/06 07:00:55;;;;;;;18.98;12.68;;;;;;;;;;4990676;28;20477;-66
2022/12/06 07:03:22;;;;;;;28.17;13.40;;;;;;;;;;4991258;28;20501;-66
2022/12/06 07:06:01;;;;;;;21.90;13.70;;;;;;;;;;4991797;28;20054;-66
2022/12/06 07:08:29;;;;;;;18.55;13.05;;;;;;;;;;4991356;28;20047;-67
2022/12/06 07:10:56;;;;;;;20.17;12.75;;;;;;;;;;4991223;28;20462;-66
2022/12/06 07:13:24;;;;;;;19.98;13.65;;;;;;;;;;4990574;28;20054;-69
2022/12/06 07:15:51;;;;;;;18.70;14.23;;;;;;;;;;4990886;28;20100;-66
2022/12/06 07:18:18;;;;;;;19.55;14.23;;;;;;;;;;4991062;28;20112;-65
2022/12/06 07:20:45;;;;;;;19.20;13.65;;;;;;;;;;4990982;28;20390;-65
2022/12/06 07:23:12;;;;;;;18.88;12.65;;;;;;;;;;4991024;28;20104;-66
2022/12/06 07:25:39;;;;;;;17.88;12.55;;;;;;;;;;4971893;28;20063;-65
2022/12/06 07:28:06;;;;;;;17.88;13.70;;;;;;;;;;4987000;28;20047;-66
2022/12/06 07:30:32;;;;;;;16.90;12.48;;;;;;;;;;4990739;28;20111;-66
2022/12/06 07:32:59;;;;;;;13.70;11.55;;;;;;;;;;4990673;28;20112;-67
2022/12/06 07:35:26;;;;;;;16.95;12.20;;;;;;;;;;4990814;28;20061;-66
2022/12/06 07:38:12;;;;;;;16.50;12.10;;;;;;;;;;4990599;28;20050;-66
2022/12/06 07:40:39;;;;;;;18.67;12.77;;;;;;;;;;4990282;28;20309;-64
2022/12/06 07:46:11;;;;;;;17.88;12.40;;;;;;;;;;4990606;28;20137;-64
2022/12/06 07:48:38;;;;;;;16.70;11.98;;;;;;;;;;4990361;28;20146;-65
2022/12/06 07:51:05;;;;;;;15.52;11.88;;;;;;;;;;4989978;28;20050;-64
2022/12/06 07:53:31;;;;;;;17.20;12.52;;;;;;;;;;4989861;28;20403;-65
2022/12/06 07:56:04;;;;;;;19.10;12.20;;;;;;;;;;4990335;28;20192;-66
2022/12/06 07:58:31;;;;;;;;;;;;;;;;;;4990920;28;20046;-65
2022/12/06 08:00:57;;;;;;;18.65;13.13;;;;;;;;;;4988888;28;19961;-66
2022/12/06 08:03:24;;;;;;;17.88;12.50;;;;;;;;;;4990514;28;20058;-66
2022/12/06 08:05:54;;;;;;;17.58;12.32;;;;;;;;;;4991121;28;20481;-64
2022/12/06 08:08:21;;;;;;;17.75;12.63;;;;;;;;;;4992288;28;20050;-66
2022/12/06 08:10:54;;;;;;;19.23;13.73;;;;;;;;;;4992033;28;20061;-64
2022/12/06 08:13:20;;;;;;;18.85;13.23;;;;;;;;;;4990719;28;20050;-66
2022/12/06 08:15:47;;;;;;;16.50;12.73;;;;;;;;;;4985953;28;20110;-65
2022/12/06 08:18:14;;;;;;;19.67;13.05;;;;;;;;;;4972744;28;20454;-66
2022/12/06 08:20:40;;;;;;;17.17;12.55;;;;;;;;;;4970902;28;20504;-69
2022/12/06 08:23:07;;;;;;;19.33;13.07;;;;;;;;;;4987132;28;20061;-67
2022/12/06 08:25:34;;;;;;;18.73;13.05;;;;;;;;;;4993766;28;20055;-66
2022/12/06 08:28:00;;;;;;;24.33;14.10;;;;;;;;;;4987747;28;20050;-68
2022/12/06 08:30:27;;;;;;;20.35;14.50;;;;;;;;;;4989644;28;20524;-67
2022/12/06 08:32:54;;;;;;;21.42;14.48;;;;;;;;;;4982259;28;20186;-67
2022/12/06 08:35:21;;;;;;;20.92;14.48;;;;;;;;;;4989502;28;20078;-67
2022/12/06 08:37:47;;;;;;;20.40;13.52;;;;;;;;;;4984859;28;20053;-67
2022/12/06 08:40:14;;;;;;;18.30;13.77;;;;;;;;;;4986456;28;20054;-68
2022/12/06 08:42:42;;;;;;;19.88;14.00;;;;;;;;;;4986455;28;20059;-68
2022/12/06 08:45:09;;;;;;;16.42;12.80;;;;;;;;;;4988975;28;20050;-69
2022/12/06 08:47:35;;;;;;;19.52;14.00;;;;;;;;;;4984037;28;20513;-69
2022/12/06 08:50:02;;;;;;;20.45;12.95;;;;;;;;;;4987266;28;20054;-68
2022/12/06 08:52:29;;;;;;;17.05;12.65;;;;;;;;;;4991447;28;20050;-71
2022/12/06 08:54:56;;;;;;;18.73;12.25;;;;;;;;;;4990533;28;20050;-68
2022/12/06 08:57:22;;;;;;;15.48;12.02;;;;;;;;;;4991829;28;20054;-67
2022/12/06 08:59:49;;;;;;;17.08;12.52;;;;;;;;;;4987780;28;20090;-67
2022/12/06 09:02:15;;;;;;;16.30;12.70;;;;;;;;;;4985176;28;20472;-68
2022/12/06 09:04:42;;;;;;;19.08;12.65;;;;;;;;;;4985912;28;20054;-68
2022/12/06 09:07:09;;;;;;;17.08;12.30;;;;;;;;;;4986301;28;20125;-68
2022/12/06 09:09:37;;;;;;;13.60;10.90;;;;;;;;;;4987953;28;20046;-70
2022/12/06 09:12:04;;;;;;;14.00;11.07;;;;;;;;;;4992300;28;20576;-70
2022/12/06 09:14:31;;;;;;;16.13;11.32;;;;;;;;;;4989140;28;20047;-69
2022/12/06 09:16:58;;;;;;;19.58;12.93;;;;;;;;;;4990741;28;20058;-72
2022/12/06 09:19:25;;;;;;;15.70;11.65;;;;;;;;;;4989399;28;20042;-68
2022/12/06 09:21:51;;;;;;;15.52;11.75;;;;;;;;;;4990195;28;20428;-75
2022/12/06 09:24:18;;;;;;;16.33;11.52;;;;;;;;;;4986947;28;20097;-73
2022/12/06 09:26:45;;;;;;;12.90;10.43;;;;;;;;;;4985753;28;20121;-69
2022/12/06 09:29:14;;;;;;;14.85;10.93;;;;;;;;;;4984055;28;20121;-69
2022/12/06 09:31:40;;;;;;;12.85;9.38;;;;;;;;;;4988512;28;20121;-68
2022/12/06 09:34:08;;;;;;;15.82;11.43;;;;;;;;;;4984235;28;20050;-68
2022/12/06 09:36:40;;;;;;;13.95;10.63;;;;;;;;;;4979029;28;20058;-69
2022/12/06 09:39:16;;;;;;;15.13;11.15;;;;;;;;;;4983697;28;20046;-72
2022/12/06 09:41:46;;;;;;;14.38;11.60;;;;;;;;;;4983312;28;20055;-76
2022/12/06 09:44:49;;;;;;;15.73;11.77;;;;;;;;;;4983654;28;20050;-74
2022/12/06 09:47:40;;;;;;;15.63;10.10;;;;;;;;;;4966479;28;20085;-74
2022/12/06 09:50:25;;;;;;;13.88;10.82;;;;;;;;;;4984598;28;20063;-68
2022/12/06 09:53:11;;;;;;;14.95;11.13;;;;;;;;;;4985328;28;20073;-73
2022/12/06 09:55:59;;;;;;;16.20;10.93;;;;;;;;;;4987396;28;20054;-71
2022/12/06 09:58:32;;;;;;;14.63;11.13;;;;;;;;;;4984328;28;20072;-71
2022/12/06 10:01:24;;;;;;;17.40;12.18;;;;;;;;;;4979575;28;20050;-72
2022/12/06 10:03:56;;;;;;;14.85;11.70;;;;;;;;;;4968412;28;20521;-70
2022/12/06 10:06:24;;;;;;;14.15;11.30;;;;;;;;;;4980727;28;20433;-72
2022/12/06 10:09:13;;;;;;;15.57;11.35;;;;;;;;;;4970012;28;20061;-72
2022/12/06 10:11:56;;;;;;;14.55;11.18;;;;;;;;;;4984713;28;20062;-72
2022/12/06 10:14:46;;;;;;;16.00;11.80;;;;;;;;;;4987872;28;20078;-72
2022/12/06 10:17:18;;;;;;;16.23;12.57;;;;;;;;;;4989285;28;20057;-71
2022/12/06 10:20:00;;;;;;;17.30;12.73;;;;;;;;;;4985727;28;20454;-68
2022/12/06 10:22:42;;;;;;;15.38;11.70;;;;;;;;;;4980562;28;20305;-69
2022/12/06 10:25:23;;;;;;;17.95;13.02;;;;;;;;;;4981766;28;20476;-69
2022/12/06 10:28:13;;;;;;;19.00;11.77;;;;;;;;;;4989432;28;20058;-72
2022/12/06 10:30:51;;;;;;;16.20;11.90;;;;;;;;;;4985686;28;20046;-69
2022/12/06 10:33:20;;;;;;;16.83;11.02;;;;;;;;;;4980862;28;20054;-71
2022/12/06 10:35:52;;;;;;;15.55;11.18;;;;;;;;;;4982721;28;20078;-69
2022/12/06 10:38:26;;;;;;;23.00;13.05;;;;;;;;;;4991182;28;20039;-75
2022/12/06 10:41:25;;;;;;;20.27;12.57;;;;;;;;;;4989784;28;20057;-73
2022/12/06 10:44:05;;;;;;;19.00;11.88;;;;;;;;;;4991822;28;20074;-69
2022/12/06 10:49:41;;;;;;;14.75;10.82;;;;;;;;;;4969701;28;20492;-72
2022/12/06 10:52:31;;;;;;;15.90;10.55;;;;;;;;;;4960863;28;20051;-69
2022/12/06 10:55:01;;;;;;;14.35;10.43;;;;;;;;;;4977783;28;20051;-67
2022/12/06 10:57:47;;;;;;;14.07;10.43;;;;;;;;;;4962675;28;20098;-67
2022/12/06 11:00:25;;;;;;;11.27;8.48;;;;;;;;;;4958889;28;20047;-67
2022/12/06 11:02:57;;;;;;;13.48;8.70;;;;;;;;;;4959571;28;20051;-69
2022/12/06 11:05:42;;;;;;;12.65;9.00;;;;;;;;;;4961047;28;20046;-65
2022/12/06 11:08:25;;;;;;;13.73;9.52;;;;;;;;;;4962401;28;20054;-68
2022/12/06 11:10:52;;;;;;;16.05;10.32;;;;;;;;;;4962964;28;20051;-69
2022/12/06 11:13:27;;;;;;;15.70;9.48;;;;;;;;;;4962089;28;20047;-73
2022/12/06 11:15:58;;;;;;;15.73;10.15;;;;;;;;;;4965683;28;20514;-71
2022/12/06 11:18:27;;;;;;;13.15;9.07;;;;;;;;;;4960530;28;20190;-71
2022/12/06 11:21:35;;;;;;;15.80;10.77;;;;;;;;;;4961469;28;20082;-70
2022/12/06 11:24:20;;;;;;;14.60;9.75;;;;;;;;;;4963091;28;20106;-69
2022/12/06 11:27:08;;;;;;;12.10;8.95;;;;;;;;;;4965454;28;20370;-72
2022/12/06 11:29:36;;;;;;;15.98;10.68;;;;;;;;;;4960394;28;20042;-71
2022/12/06 11:32:06;;;;;;;15.43;10.57;;;;;;;;;;4959773;28;20495;-71
2022/12/06 11:34:47;;;;;;;12.70;9.00;;;;;;;;;;4978125;28;20043;-69
2022/12/06 11:37:16;;;;;;;12.48;8.35;;;;;;;;;;4962442;28;20081;-69
2022/12/06 11:39:43;;;;;;;12.13;8.35;;;;;;;;;;4935991;28;20080;-73
2022/12/06 11:42:12;;;;;;;14.02;9.90;;;;;;;;;;4964284;28;20505;-71
2022/12/06 11:44:48;;;;;;;13.32;9.98;;;;;;;;;;4945016;28;20115;-72
2022/12/06 11:47:18;;;;;;;11.15;8.85;;;;;;;;;;4945035;28;20047;-65
2022/12/06 11:49:45;;;;;;;11.77;8.30;;;;;;;;;;4946288;28;20102;-71
2022/12/06 11:52:19;;;;;;;12.23;8.55;;;;;;;;;;4962565;28;20059;-70
2022/12/06 11:54:54;;;;;;;12.43;8.10;;;;;;;;;;4964384;28;20474;-70
2022/12/06 11:57:24;;;;;;;13.40;8.98;;;;;;;;;;4943508;28;20138;-71
2022/12/06 12:00:12;;;;;;;12.02;7.72;;;;;;;;;;4953844;28;20051;-70
2022/12/06 12:02:39;;;;;;;9.35;6.15;;;;;;;;;;4959084;28;20262;-68
2022/12/06 12:05:15;;;;;;;9.95;6.75;;;;;;;;;;4960247;28;20074;-67
2022/12/06 12:07:58;;;;;;;8.40;6.15;;;;;;;;;;4955848;28;20059;-66
2022/12/06 12:10:37;;;;;;;7.47;5.88;;;;;;;;;;4957822;28;20047;-67
2022/12/06 12:16:23;;;;;;;7.93;6.20;;;;;;;;;;4953243;28;20055;-65
2022/12/06 12:18:55;;;;;;;8.38;6.47;;;;;;;;;;4959193;28;20156;-67
2022/12/06 12:21:37;;;;;;;8.23;6.47;;;;;;;;;;4957727;28;20047;-68
2022/12/06 12:24:05;;;;;;;11.00;6.78;;;;;;;;;;4955727;28;20086;-66
2022/12/06 12:26:37;;;;;;;10.80;6.93;;;;;;;;;;4960389;28;20153;-66
2022/12/06 12:29:07;;;;;;;8.15;5.72;;;;;;;;;;4961726;28;20088;-67
2022/12/06 12:31:52;;;;;;;8.93;6.65;;;;;;;;;;4959020;28;20079;-66
2022/12/06 12:34:29;;;;;;;11.82;7.10;;;;;;;;;;4960214;28;20390;-68
2022/12/06 12:36:58;;;;;;;8.50;6.80;;;;;;;;;;4960249;28;20066;-67
2022/12/06 12:39:35;;;;;;;11.18;6.43;;;;;;;;;;4960842;28;20043;-68
2022/12/06 12:42:02;;;;;;;10.27;7.10;;;;;;;;;;4959500;28;20493;-66
2022/12/06 12:44:33;;;;;;;9.35;6.82;;;;;;;;;;4959813;28;20047;-68
2022/12/06 12:47:18;;;;;;;10.20;6.55;;;;;;;;;;4965006;28;20059;-68
2022/12/06 12:50:19;;;;;;;12.40;7.00;;;;;;;;;;4960258;28;20051;-65
2022/12/06 12:52:46;;;;;;;9.93;5.65;;;;;;;;;;4940331;28;20050;-66
2022/12/06 12:55:15;;;;;;;8.98;6.15;;;;;;;;;;4959796;28;20055;-66
2022/12/06 12:57:43;;;;;;;8.40;6.20;;;;;;;;;;4959269;28;20078;-68
2022/12/06 13:00:31;;;;;;;10.20;6.25;;;;;;;;;;4961123;28;20109;-66
2022/12/06 13:03:00;;;;;;;7.63;5.93;;;;;;;;;;4940486;28;20502;-66
2022/12/06 13:05:29;;;;;;;8.02;5.45;;;;;;;;;;4961665;28;20074;-68
2022/12/06 13:08:21;;;;;;;7.20;5.07;;;;;;;;;;4945236;28;20276;-68
2022/12/06 13:10:50;;;;;;;7.07;5.05;;;;;;;;;;4962875;28;20586;-67
2022/12/06 13:13:40;;;;;;;7.35;4.75;;;;;;;;;;4961679;28;20050;-69
2022/12/06 13:16:11;;;;;;;7.40;5.30;;;;;;;;;;4966203;28;20117;-65
2022/12/06 13:18:42;;;;;;;8.90;5.53;;;;;;;;;;4961737;28;20063;-66
2022/12/06 13:21:24;;;;;;;7.55;5.53;;;;;;;;;;4955110;28;20470;-70
2022/12/06 13:23:57;;;;;;;7.83;5.77;;;;;;;;;;4964605;28;20469;-72
2022/12/06 13:26:25;;;;;;;7.50;6.00;;;;;;;;;;4966239;28;20135;-74
2022/12/06 13:28:56;;;;;;;8.07;6.20;;;;;;;;;;4958517;28;20079;-71
2022/12/06 13:31:24;;;;;;;8.30;5.50;;;;;;;;;;4946934;28;20395;-68
2022/12/06 13:33:54;;;;;;;6.68;5.95;;;;;;;;;;4966100;28;20047;-71
2022/12/06 13:36:21;;;;;;;6.63;5.70;;;;;;;;;;4962109;28;20077;-71
2022/12/06 13:38:47;;;;;;;7.22;6.30;;;;;;;;;;4960927;28;20070;-69
2022/12/06 13:42:16;;;;;;;6.85;5.97;;;;;;;;;;4963671;28;20107;-68
2022/12/06 13:44:37;;;;;;;5.53;4.63;;;;;;;;;;4959763;28;20051;-68
2022/12/06 13:47:25;;;;;;;6.15;4.28;;;;;;;;;;4961803;28;20055;-70
2022/12/06 13:49:57;;;;;;;6.28;4.60;;;;;;;;;;4964940;28;20091;-69
2022/12/06 13:52:42;;;;;;;5.05;4.55;;;;;;;;;;4965581;28;20129;-69
2022/12/06 13:55:24;;;;;;;6.85;5.20;;;;;;;;;;4960881;28;20071;-68
2022/12/06 13:57:54;;;;;;;7.03;4.63;;;;;;;;;;4960265;28;20580;-71
2022/12/06 14:00:27;;;;;;;7.72;5.50;;;;;;;;;;4962368;28;20046;-69
2022/12/06 14:02:57;;;;;;;7.63;5.82;;;;;;;;;;4960449;28;20059;-67
2022/12/06 14:05:59;;;;;;;7.93;5.40;;;;;;;;;;4959894;28;20129;-68
2022/12/06 14:08:37;;;;;;;8.98;5.70;;;;;;;;;;4966455;28;20053;-68
2022/12/06 14:11:15;;;;;;;7.55;5.70;;;;;;;;;;4964176;28;20473;-68
2022/12/06 14:13:54;;;;;;;6.85;5.40;;;;;;;;;;4963390;28;20090;-70
2022/12/06 14:16:24;;;;;;;7.30;5.32;;;;;;;;;;4960921;28;20053;-74
2022/12/06 14:18:51;;;;;;;7.45;6.00;;;;;;;;;;4965100;28;20062;-73
2022/12/06 14:21:21;;;;;;;7.55;6.15;;;;;;;;;;4948845;28;20117;-72
2022/12/06 14:23:48;;;;;;;7.03;6.07;;;;;;;;;;4960332;28;20093;-70
2022/12/06 14:26:24;;;;;;;7.40;5.28;;;;;;;;;;4944552;28;20054;-71
2022/12/06 14:28:52;;;;;;;6.93;5.57;;;;;;;;;;4957052;28;20434;-71
2022/12/06 14:31:22;;;;;;;7.53;5.75;;;;;;;;;;4959878;28;20051;-73
2022/12/06 14:33:50;;;;;;;6.82;5.50;;;;;;;;;;4947742;28;20051;-72
2022/12/06 14:36:21;;;;;;;7.95;6.13;;;;;;;;;;4956004;28;20095;-72
2022/12/06 14:38:54;;;;;;;7.00;5.93;;;;;;;;;;4944991;28;20051;-73
2022/12/06 14:44:14;;;;;;;7.07;4.82;;;;;;;;;;4962414;28;20125;-69
2022/12/06 14:46:43;;;;;;;14.23;8.77;;;;;;;;;;4962515;28;20067;-69
2022/12/06 14:52:01;;;;;;;7.80;6.53;;;;;;;;;;4959091;28;20059;-68
2022/12/06 14:54:34;;;;;;;8.60;5.65;;;;;;;;;;4964920;28;20474;-71
2022/12/06 14:57:02;;;;;;;8.07;6.32;;;;;;;;;;4960732;28;20051;-70
2022/12/06 14:59:28;;;;;;;9.70;6.30;;;;;;;;;;4979596;28;20071;-74
2022/12/06 15:02:23;;;;;;;9.00;6.03;;;;;;;;;;4951358;28;20097;-73
2022/12/06 15:04:49;;;;;;;9.32;5.55;;;;;;;;;;4960341;28;20047;-72
2022/12/06 15:07:35;;;;;;;6.97;5.63;;;;;;;;;;4961670;28;20481;-73
2022/12/06 15:10:14;;;;;;;8.57;6.40;;;;;;;;;;4963734;28;20145;-69
2022/12/06 15:12:57;;;;;;;6.50;5.47;;;;;;;;;;4962157;28;20109;-68
2022/12/06 15:16:08;;;;;;;7.38;5.38;;;;;;;;;;4959861;28;20082;-68
2022/12/06 15:18:41;;;;;;;7.90;6.32;;;;;;;;;;4953509;28;20053;-69
2022/12/06 15:21:12;;;;;;;8.45;6.70;;;;;;;;;;4957598;28;20459;-67
2022/12/06 15:23:46;;;;;;;10.10;6.60;;;;;;;;;;4960865;28;20086;-67
2022/12/06 15:26:13;;;;;;;8.93;6.53;;;;;;;;;;4962753;28;20078;-69